Terminal Aerodrome Forecast
Issued by NWS

Home | Current Version | Previous Version | Text Only | Print | Product List | Glossary Off
Versions: 1 2 3 4 5 6 7 8 9 10 11 12 13 14 15 16 17

000
FTUS43 KBIS 201700
TAFJMS
TAF
KJMS 201720Z 2018/2118 25011KT P6SM SKC
     FM202000 27014G19KT P6SM SKC
     FM210100 25004KT P6SM SKC
     FM210400 VRB02KT P6SM FEW120
     FM211200 10006KT P6SM FEW150 SCT200=

USA.gov is the U.S. government's official web portal to all federal, state and local government web resources and services.